Time;durP1;ratioP1;P1;durP2;ratioP2;P2;SDS_P1;SDS_P2;PMS_P1;PMS_P2;Temp;Humidity;BMP_temperature;BMP_pressure;BME280_temperature;BME280_humidity;BME280_pressure;Samples;Min_cycle;Max_cycle;Signal;HPM_P1;HPM_P2
2023/12/20 00:00:37;;;;;;;16.80;15.57;;;6.70;99.90;;;;;;4867438;29;20436;-47
2023/12/20 00:03:03;;;;;;;16.30;15.32;;;6.70;99.90;;;;;;4868205;29;20443;-49
2023/12/20 00:05:28;;;;;;;16.47;15.57;;;6.70;99.90;;;;;;4868784;29;20196;-49
2023/12/20 00:07:54;;;;;;;16.10;15.10;;;6.70;99.90;;;;;;4868561;29;20449;-50
2023/12/20 00:10:20;;;;;;;16.60;15.60;;;6.70;99.90;;;;;;4868500;29;20240;-53
2023/12/20 00:12:45;;;;;;;16.40;15.50;;;6.60;99.90;;;;;;4867910;29;20199;-52
2023/12/20 00:15:11;;;;;;;17.40;16.30;;;6.70;99.90;;;;;;4867723;29;21321;-52
2023/12/20 00:17:37;;;;;;;16.00;15.20;;;6.70;99.90;;;;;;4868189;29;20183;-47
2023/12/20 00:20:02;;;;;;;17.30;16.20;;;6.70;99.90;;;;;;4866582;29;20259;-47
2023/12/20 00:22:28;;;;;;;16.90;15.80;;;6.60;99.90;;;;;;4868790;29;20196;-48
2023/12/20 00:24:53;;;;;;;15.77;14.97;;;6.60;99.90;;;;;;4866933;29;20203;-45
2023/12/20 00:27:19;;;;;;;16.10;15.20;;;6.60;99.90;;;;;;4867339;29;20275;-47
2023/12/20 00:29:47;;;;;;;16.67;15.47;;;6.60;99.90;;;;;;4867026;29;20192;-47
2023/12/20 00:32:13;;;;;;;16.45;15.55;;;6.60;99.90;;;;;;4867075;29;20323;-47
2023/12/20 00:34:39;;;;;;;16.33;15.33;;;6.60;99.90;;;;;;4867861;29;20670;-47
2023/12/20 00:37:04;;;;;;;16.30;15.40;;;6.50;99.90;;;;;;4868075;29;20417;-50
2023/12/20 00:39:31;;;;;;;17.00;15.90;;;6.50;99.90;;;;;;4867248;29;20199;-49
2023/12/20 00:41:56;;;;;;;15.80;14.90;;;6.50;99.90;;;;;;4867789;29;20425;-45
2023/12/20 00:44:22;;;;;;;15.93;15.03;;;6.50;99.90;;;;;;4866840;29;20261;-51
2023/12/20 00:46:47;;;;;;;15.80;15.00;;;6.50;99.90;;;;;;4866867;29;20192;-48
2023/12/20 00:49:13;;;;;;;16.20;15.30;;;6.40;99.90;;;;;;4867947;29;20630;-48
2023/12/20 00:51:38;;;;;;;16.03;15.13;;;6.40;99.90;;;;;;4873849;29;20180;-48
2023/12/20 00:54:04;;;;;;;15.70;14.90;;;6.40;99.90;;;;;;4866425;29;20180;-46
2023/12/20 00:56:30;;;;;;;15.47;14.67;;;6.40;99.90;;;;;;4867992;29;20259;-49
2023/12/20 00:58:55;;;;;;;15.50;14.70;;;6.40;99.90;;;;;;4866392;29;20311;-49
2023/12/20 01:01:21;;;;;;;15.53;14.63;;;6.30;99.90;;;;;;4866264;29;20184;-52
2023/12/20 01:03:48;;;;;;;15.70;14.85;;;6.30;99.90;;;;;;4867784;29;20196;-54
2023/12/20 01:06:14;;;;;;;16.40;15.50;;;6.30;99.90;;;;;;4867142;29;20196;-50
2023/12/20 01:08:39;;;;;;;15.55;14.75;;;6.30;99.90;;;;;;4865558;29;20299;-52
2023/12/20 01:11:05;;;;;;;15.80;14.90;;;6.30;99.90;;;;;;4867400;29;20192;-52
2023/12/20 01:13:31;;;;;;;15.05;14.35;;;6.30;99.90;;;;;;4866700;29;20196;-51
2023/12/20 01:15:57;;;;;;;15.67;14.87;;;6.30;99.90;;;;;;4867304;29;20670;-46
2023/12/20 01:18:22;;;;;;;15.20;14.40;;;6.20;99.90;;;;;;4867829;29;20187;-50
2023/12/20 01:20:48;;;;;;;14.50;13.80;;;6.10;99.90;;;;;;4871378;29;20712;-47
2023/12/20 01:23:14;;;;;;;15.57;14.70;;;6.10;99.90;;;;;;4866684;29;20562;-48
2023/12/20 01:25:39;;;;;;;15.30;14.50;;;6.10;99.90;;;;;;4867407;29;21394;-49
2023/12/20 01:28:05;;;;;;;15.33;14.57;;;6.10;99.90;;;;;;4866592;29;20231;-47
2023/12/20 01:30:30;;;;;;;15.30;14.50;;;6.10;99.90;;;;;;4866724;29;20188;-49
2023/12/20 01:32:56;;;;;;;15.00;14.20;;;6.10;99.90;;;;;;4867171;29;20195;-47
2023/12/20 01:35:22;;;;;;;15.10;14.30;;;6.10;99.90;;;;;;4866888;29;20263;-47
2023/12/20 01:37:47;;;;;;;15.17;14.37;;;6.00;99.90;;;;;;4862327;29;20188;-47
2023/12/20 01:40:13;;;;;;;14.70;14.00;;;6.00;99.90;;;;;;4867294;29;20702;-49
2023/12/20 01:42:39;;;;;;;14.97;14.20;;;6.00;99.90;;;;;;4867148;29;20184;-50
2023/12/20 01:45:05;;;;;;;14.93;14.23;;;6.00;99.90;;;;;;4867611;29;20234;-45
2023/12/20 01:47:30;;;;;;;15.30;14.50;;;6.00;99.90;;;;;;4866861;29;20950;-46
2023/12/20 01:49:56;;;;;;;15.17;14.37;;;5.90;99.90;;;;;;4866776;29;20307;-49
2023/12/20 01:52:23;;;;;;;15.45;14.65;;;6.00;99.90;;;;;;4867218;29;20196;-49
2023/12/20 01:54:49;;;;;;;14.80;14.10;;;6.00;99.90;;;;;;4865291;29;20685;-49
2023/12/20 01:57:15;;;;;;;15.20;14.40;;;6.00;99.90;;;;;;4866619;29;20203;-50
2023/12/20 01:59:41;;;;;;;15.82;14.70;;;5.90;99.90;;;;;;4866286;29;20187;-48
2023/12/20 02:02:07;;;;;;;15.80;14.70;;;5.90;99.90;;;;;;4865994;29;20184;-49
2023/12/20 02:04:33;;;;;;;14.90;14.20;;;5.90;99.90;;;;;;4866627;29;20254;-46
2023/12/20 02:06:59;;;;;;;15.37;14.57;;;5.90;99.90;;;;;;4864450;29;20201;-48
2023/12/20 02:09:25;;;;;;;15.40;14.60;;;5.90;99.90;;;;;;4866886;29;20424;-45
2023/12/20 02:11:51;;;;;;;15.20;14.50;;;5.80;99.90;;;;;;4866496;29;20271;-46
2023/12/20 02:14:17;;;;;;;15.20;14.50;;;5.80;99.90;;;;;;4866855;29;20710;-48
2023/12/20 02:16:42;;;;;;;15.60;14.80;;;5.90;99.90;;;;;;4865552;29;20207;-47
2023/12/20 02:19:15;;;;;;;15.17;14.40;;;5.80;99.90;;;;;;4865403;29;20211;-48
2023/12/20 02:21:40;;;;;;;14.75;14.05;;;5.80;99.90;;;;;;4866382;29;20527;-50
2023/12/20 02:24:06;;;;;;;14.70;14.00;;;5.80;99.90;;;;;;4866947;29;20203;-49
2023/12/20 02:26:34;;;;;;;14.90;14.20;;;5.80;99.90;;;;;;4865844;29;20184;-51
2023/12/20 02:29:01;;;;;;;15.25;14.45;;;5.80;99.90;;;;;;4865275;29;20190;-50
2023/12/20 02:31:27;;;;;;;14.18;13.52;;;5.80;99.90;;;;;;4865533;29;20223;-54
2023/12/20 02:33:52;;;;;;;15.20;14.40;;;5.80;99.90;;;;;;4867147;29;20295;-51
2023/12/20 02:36:18;;;;;;;14.70;14.00;;;5.80;99.90;;;;;;4873525;29;20479;-52
2023/12/20 02:38:43;;;;;;;14.87;14.10;;;5.80;99.90;;;;;;4866049;29;20208;-52
2023/12/20 02:41:09;;;;;;;14.70;14.00;;;5.80;99.90;;;;;;4866345;29;20260;-49
2023/12/20 02:43:35;;;;;;;15.00;14.20;;;5.70;99.90;;;;;;4865694;29;20250;-51
2023/12/20 02:46:00;;;;;;;14.63;13.93;;;5.70;99.90;;;;;;4866217;29;20348;-52
2023/12/20 02:48:26;;;;;;;14.60;13.90;;;5.80;99.90;;;;;;4865863;29;20196;-52
2023/12/20 02:50:51;;;;;;;14.30;13.60;;;5.80;99.90;;;;;;4865139;29;21094;-50
2023/12/20 02:53:17;;;;;;;14.23;13.53;;;5.80;99.90;;;;;;4865144;29;20552;-51
2023/12/20 02:55:43;;;;;;;14.50;13.80;;;5.80;99.90;;;;;;4866104;29;20215;-53
2023/12/20 02:58:08;;;;;;;14.50;13.80;;;5.70;99.90;;;;;;4864930;29;20253;-51
2023/12/20 03:00:34;;;;;;;13.90;13.30;;;5.70;99.90;;;;;;4875681;29;20196;-53
2023/12/20 03:02:59;;;;;;;13.70;13.10;;;5.70;99.90;;;;;;4865649;29;20188;-53
2023/12/20 03:05:25;;;;;;;14.07;13.47;;;5.70;99.90;;;;;;4866375;29;20573;-51
2023/12/20 03:07:51;;;;;;;14.70;13.90;;;5.70;99.90;;;;;;4867559;29;20216;-49
2023/12/20 03:10:18;;;;;;;14.95;14.25;;;5.70;99.90;;;;;;4869619;29;20572;-45
2023/12/20 03:12:44;;;;;;;14.15;13.55;;;5.70;99.90;;;;;;4868581;29;20195;-43
2023/12/20 03:15:10;;;;;;;14.40;13.70;;;5.70;99.90;;;;;;4868869;29;20239;-45
2023/12/20 03:17:36;;;;;;;14.70;14.00;;;5.70;99.90;;;;;;4868496;29;20310;-48
2023/12/20 03:20:02;;;;;;;14.40;13.70;;;5.70;99.90;;;;;;4868413;29;20184;-46
2023/12/20 03:22:27;;;;;;;14.17;13.50;;;5.70;99.90;;;;;;4868311;29;20180;-46
2023/12/20 03:24:53;;;;;;;14.10;13.50;;;5.70;99.90;;;;;;4869551;29;20436;-46
2023/12/20 03:27:19;;;;;;;14.33;13.63;;;5.70;99.90;;;;;;4868447;29;20191;-45
2023/12/20 03:29:44;;;;;;;14.60;13.90;;;5.70;99.90;;;;;;4868972;29;20194;-47
2023/12/20 03:32:10;;;;;;;14.03;13.33;;;5.70;99.90;;;;;;4869327;29;20303;-44
2023/12/20 03:34:35;;;;;;;14.37;13.67;;;5.60;99.90;;;;;;4869198;29;20287;-48
2023/12/20 03:37:01;;;;;;;14.50;13.80;;;5.60;99.90;;;;;;4868762;29;20209;-47
2023/12/20 03:39:27;;;;;;;14.83;14.13;;;5.60;99.90;;;;;;4867194;29;20311;-47
2023/12/20 03:41:52;;;;;;;13.90;13.30;;;5.60;99.90;;;;;;4868989;29;20655;-47
2023/12/20 03:44:18;;;;;;;13.90;13.30;;;5.60;99.90;;;;;;4867969;29;20236;-44
2023/12/20 03:46:45;;;;;;;14.10;13.50;;;5.60;99.90;;;;;;4868436;29;20192;-45
2023/12/20 03:49:12;;;;;;;13.60;13.00;;;5.60;99.90;;;;;;4868899;29;20207;-45
2023/12/20 03:51:37;;;;;;;14.10;13.40;;;5.60;99.90;;;;;;4869310;29;20232;-44
2023/12/20 03:54:03;;;;;;;13.57;12.97;;;5.60;99.90;;;;;;4866763;29;20283;-49
2023/12/20 03:56:29;;;;;;;14.00;13.30;;;5.60;99.90;;;;;;4868462;29;20207;-45
2023/12/20 03:58:54;;;;;;;14.17;13.57;;;5.60;99.90;;;;;;4867332;29;20416;-47
2023/12/20 04:01:20;;;;;;;13.80;13.20;;;5.60;99.90;;;;;;4867396;29;20200;-48
2023/12/20 04:03:45;;;;;;;13.90;13.20;;;5.60;99.90;;;;;;4868678;29;20196;-44
2023/12/20 04:06:19;;;;;;;13.80;13.20;;;5.60;99.90;;;;;;4868831;29;20195;-51
2023/12/20 04:08:45;;;;;;;13.68;13.07;;;5.50;99.90;;;;;;4868745;29;20668;-45
2023/12/20 04:11:10;;;;;;;13.70;13.10;;;5.50;99.90;;;;;;4868760;29;20286;-51
2023/12/20 04:13:36;;;;;;;13.60;13.00;;;5.60;99.90;;;;;;4867642;29;20468;-47
2023/12/20 04:16:02;;;;;;;13.73;13.13;;;5.60;99.90;;;;;;4867905;29;20208;-45
2023/12/20 04:18:28;;;;;;;13.13;12.63;;;5.60;99.90;;;;;;4866990;29;21048;-47
2023/12/20 04:20:54;;;;;;;13.07;12.50;;;5.60;99.90;;;;;;4867801;29;20180;-45
2023/12/20 04:23:19;;;;;;;13.40;12.80;;;5.60;99.90;;;;;;4873807;29;20554;-48
2023/12/20 04:25:45;;;;;;;13.33;12.73;;;5.70;99.90;;;;;;4868099;29;20455;-49
2023/12/20 04:28:10;;;;;;;13.67;13.07;;;5.60;99.90;;;;;;4868373;29;20195;-47
2023/12/20 04:30:36;;;;;;;13.57;12.97;;;5.60;99.90;;;;;;4867769;29;20203;-47
2023/12/20 04:33:02;;;;;;;13.47;12.87;;;5.60;99.90;;;;;;4866715;29;20192;-48
2023/12/20 04:35:27;;;;;;;13.63;13.02;;;5.70;99.90;;;;;;4868191;29;20199;-51
2023/12/20 04:37:53;;;;;;;13.63;12.93;;;5.60;99.90;;;;;;4867865;29;20260;-47
2023/12/20 04:40:19;;;;;;;13.27;12.67;;;5.70;99.90;;;;;;4867154;29;20200;-48
2023/12/20 04:42:44;;;;;;;13.93;13.33;;;5.70;99.90;;;;;;4867281;29;20270;-49
2023/12/20 04:45:12;;;;;;;13.30;12.70;;;5.70;99.90;;;;;;4867463;29;20376;-49
2023/12/20 04:47:38;;;;;;;13.57;12.98;;;5.70;99.90;;;;;;4867330;29;20301;-45
2023/12/20 04:50:04;;;;;;;13.30;12.70;;;5.70;99.90;;;;;;4868066;29;20192;-54
2023/12/20 04:52:30;;;;;;;13.30;12.70;;;5.80;99.90;;;;;;4866663;29;20817;-53
2023/12/20 04:54:56;;;;;;;13.30;12.77;;;5.80;99.90;;;;;;4866701;29;20294;-49
2023/12/20 04:57:22;;;;;;;13.10;12.50;;;5.80;99.90;;;;;;4866861;29;20188;-50
2023/12/20 04:59:47;;;;;;;12.53;11.93;;;5.80;99.90;;;;;;4867503;29;20892;-54
2023/12/20 05:02:13;;;;;;;13.47;12.80;;;5.80;99.90;;;;;;4865977;29;20184;-52
2023/12/20 05:04:38;;;;;;;13.03;12.43;;;5.80;99.90;;;;;;4866324;29;20196;-53
2023/12/20 05:07:04;;;;;;;13.30;12.70;;;5.80;99.90;;;;;;4867831;29;20275;-52
2023/12/20 05:09:30;;;;;;;12.65;12.10;;;5.80;99.90;;;;;;4866840;29;20188;-49
2023/12/20 05:11:56;;;;;;;12.88;12.27;;;5.80;99.90;;;;;;4867542;29;20196;-53
2023/12/20 05:14:22;;;;;;;13.40;12.80;;;5.80;99.90;;;;;;4866677;29;21072;-51
2023/12/20 05:16:47;;;;;;;13.70;13.10;;;5.80;99.90;;;;;;4866282;29;20539;-51
2023/12/20 05:19:14;;;;;;;14.00;13.30;;;5.80;99.90;;;;;;4867174;29;20191;-53
2023/12/20 05:21:39;;;;;;;13.20;12.60;;;5.80;99.90;;;;;;4866177;29;20231;-53
2023/12/20 05:24:05;;;;;;;13.50;12.90;;;5.90;99.90;;;;;;4865514;29;20336;-50
2023/12/20 05:26:31;;;;;;;13.50;12.87;;;5.80;99.90;;;;;;4865989;29;20553;-49
2023/12/20 05:28:56;;;;;;;13.57;12.97;;;5.90;99.90;;;;;;4866381;29;20195;-48
2023/12/20 05:31:22;;;;;;;12.90;12.33;;;5.90;99.90;;;;;;4870530;29;20291;-49
2023/12/20 05:33:47;;;;;;;13.37;12.77;;;5.90;99.90;;;;;;4867530;29;20192;-53
2023/12/20 05:36:14;;;;;;;13.10;12.50;;;5.90;99.90;;;;;;4866405;29;20302;-51
2023/12/20 05:38:40;;;;;;;12.60;12.00;;;6.00;99.90;;;;;;4867010;29;20229;-46
2023/12/20 05:41:06;;;;;;;11.93;11.43;;;6.00;99.90;;;;;;4866719;29;20184;-50
2023/12/20 05:43:32;;;;;;;13.10;12.50;;;6.00;99.90;;;;;;4865396;29;20224;-54
2023/12/20 05:45:58;;;;;;;13.80;13.10;;;6.00;99.90;;;;;;4866345;29;20266;-51
2023/12/20 05:48:23;;;;;;;13.23;12.63;;;6.00;99.90;;;;;;4866945;29;20195;-49
2023/12/20 05:50:49;;;;;;;12.10;11.60;;;6.00;99.90;;;;;;4866627;29;20655;-52
2023/12/20 05:53:14;;;;;;;11.87;11.37;;;6.00;99.90;;;;;;4867004;29;20679;-51
2023/12/20 05:55:40;;;;;;;12.50;11.90;;;6.00;99.90;;;;;;4866163;29;20574;-50
2023/12/20 05:58:06;;;;;;;12.03;11.53;;;6.00;99.90;;;;;;4865090;29;20255;-53
2023/12/20 06:00:31;;;;;;;11.97;11.47;;;6.00;99.90;;;;;;4864691;29;20295;-50
2023/12/20 06:02:57;;;;;;;12.20;11.70;;;6.00;99.90;;;;;;4864640;29;20188;-48
2023/12/20 06:05:22;;;;;;;12.37;11.77;;;5.90;99.90;;;;;;4865294;29;20184;-50
2023/12/20 06:07:50;;;;;;;12.43;11.90;;;6.00;99.90;;;;;;4867047;29;20191;-51
2023/12/20 06:10:16;;;;;;;13.05;12.45;;;6.00;99.90;;;;;;4866589;29;20247;-51
2023/12/20 06:12:42;;;;;;;13.80;13.20;;;6.00;99.90;;;;;;4866739;29;20196;-51
2023/12/20 06:15:08;;;;;;;13.07;12.47;;;5.90;99.90;;;;;;4863007;29;20479;-50
2023/12/20 06:17:34;;;;;;;12.40;11.90;;;5.90;99.90;;;;;;4865034;29;20639;-54
2023/12/20 06:20:00;;;;;;;12.90;12.30;;;6.00;99.90;;;;;;4864045;29;20463;-52
2023/12/20 06:22:26;;;;;;;12.60;12.00;;;6.00;99.90;;;;;;4866428;29;20243;-50
2023/12/20 06:24:51;;;;;;;11.70;11.20;;;6.00;99.90;;;;;;4867043;29;20889;-51
2023/12/20 06:27:17;;;;;;;12.73;12.13;;;6.00;99.90;;;;;;4865744;29;20267;-48
2023/12/20 06:29:44;;;;;;;12.30;11.70;;;6.00;99.90;;;;;;4866889;29;20194;-50
2023/12/20 06:32:10;;;;;;;12.57;11.98;;;6.00;99.90;;;;;;4866687;29;20219;-52
2023/12/20 06:34:36;;;;;;;12.17;11.60;;;6.00;99.90;;;;;;4866415;29;20688;-48
2023/12/20 06:37:01;;;;;;;12.30;11.80;;;6.10;99.90;;;;;;4866847;29;20176;-52
2023/12/20 06:39:27;;;;;;;13.00;12.40;;;6.00;99.90;;;;;;4878661;29;20226;-45
2023/12/20 06:41:53;;;;;;;13.40;12.70;;;6.10;99.90;;;;;;4867372;29;20184;-49
2023/12/20 06:44:19;;;;;;;12.90;12.30;;;6.00;99.90;;;;;;4870477;29;21015;-48
2023/12/20 06:46:44;;;;;;;12.93;12.33;;;6.00;99.90;;;;;;4870127;29;20359;-45
2023/12/20 06:49:10;;;;;;;12.60;12.00;;;6.00;99.90;;;;;;4870161;29;20194;-45
2023/12/20 06:51:36;;;;;;;12.50;11.80;;;6.10;99.90;;;;;;4870103;29;20531;-45
2023/12/20 06:54:02;;;;;;;12.70;12.10;;;6.10;99.90;;;;;;4870284;29;20192;-46
2023/12/20 06:56:28;;;;;;;13.77;12.98;;;6.10;99.90;;;;;;4869987;29;20280;-46
2023/12/20 06:58:53;;;;;;;13.03;12.43;;;6.10;99.90;;;;;;4869727;29;20879;-45
2023/12/20 07:01:19;;;;;;;13.17;12.47;;;6.10;99.90;;;;;;4870034;29;20239;-47
2023/12/20 07:03:44;;;;;;;13.67;12.93;;;6.10;99.90;;;;;;4868331;29;20212;-46
2023/12/20 07:06:10;;;;;;;12.70;12.10;;;6.00;99.90;;;;;;4868088;29;20187;-46
2023/12/20 07:08:36;;;;;;;14.30;13.57;;;6.10;99.90;;;;;;4868546;29;20188;-46
2023/12/20 07:11:02;;;;;;;15.13;14.33;;;6.00;99.90;;;;;;4868250;29;21097;-50
2023/12/20 07:13:27;;;;;;;14.10;13.40;;;6.10;99.90;;;;;;4869076;29;20204;-47
2023/12/20 07:15:53;;;;;;;14.60;13.80;;;6.10;99.90;;;;;;4869252;29;20230;-49
2023/12/20 07:18:19;;;;;;;13.87;13.10;;;6.10;99.90;;;;;;4867807;29;20271;-48
2023/12/20 07:20:44;;;;;;;13.57;12.87;;;6.10;99.90;;;;;;4867400;29;20180;-46
2023/12/20 07:23:10;;;;;;;13.90;13.20;;;6.10;99.90;;;;;;4867870;29;21064;-45
2023/12/20 07:25:35;;;;;;;15.00;14.10;;;6.10;99.90;;;;;;4867779;29;20195;-46
2023/12/20 07:28:01;;;;;;;15.03;14.23;;;6.10;99.90;;;;;;4867407;29;20188;-50
2023/12/20 07:30:27;;;;;;;14.97;14.17;;;6.10;99.90;;;;;;4868081;29;20191;-48
2023/12/20 07:32:52;;;;;;;14.70;13.90;;;6.10;99.90;;;;;;4866956;29;20687;-45
2023/12/20 07:35:18;;;;;;;13.70;13.00;;;6.10;99.90;;;;;;4867587;29;20236;-48
2023/12/20 07:37:44;;;;;;;14.57;13.67;;;6.10;99.90;;;;;;4867329;29;20923;-47
2023/12/20 07:40:10;;;;;;;14.30;13.60;;;6.10;99.90;;;;;;4867916;29;20208;-51
2023/12/20 07:42:36;;;;;;;13.60;12.80;;;6.10;99.90;;;;;;4867374;29;20609;-47
2023/12/20 07:45:01;;;;;;;13.93;13.23;;;6.10;99.90;;;;;;4867909;29;21408;-46
2023/12/20 07:47:27;;;;;;;13.73;13.03;;;6.00;99.90;;;;;;4867103;29;20631;-45
2023/12/20 07:49:53;;;;;;;14.43;13.63;;;6.00;99.90;;;;;;4867470;29;20185;-46
2023/12/20 07:52:18;;;;;;;15.20;14.30;;;6.00;99.90;;;;;;4867562;29;20184;-46
2023/12/20 07:54:45;;;;;;;15.13;14.33;;;6.00;99.90;;;;;;4869079;29;21306;-47
2023/12/20 07:57:11;;;;;;;14.82;13.98;;;6.00;99.90;;;;;;4869328;29;20184;-44
2023/12/20 07:59:36;;;;;;;14.40;13.60;;;6.10;99.90;;;;;;4869330;29;20188;-48
2023/12/20 08:02:02;;;;;;;13.90;13.10;;;6.00;99.90;;;;;;4868795;29;20421;-49
2023/12/20 08:04:27;;;;;;;14.10;13.33;;;6.00;99.90;;;;;;4868385;29;20279;-51
2023/12/20 08:06:53;;;;;;;14.80;14.00;;;6.00;99.90;;;;;;4868531;29;20188;-48
2023/12/20 08:09:19;;;;;;;13.97;13.10;;;6.00;99.90;;;;;;4868123;29;20207;-48
2023/12/20 08:11:48;;;;;;;15.00;14.17;;;5.90;99.90;;;;;;4866598;29;20184;-46
2023/12/20 08:14:14;;;;;;;14.77;13.90;;;6.00;99.90;;;;;;4866230;29;20200;-47
2023/12/20 08:16:39;;;;;;;14.23;13.32;;;6.10;99.90;;;;;;4866260;29;21046;-45
2023/12/20 08:19:05;;;;;;;14.67;13.80;;;6.10;99.90;;;;;;4868355;29;20196;-46
2023/12/20 08:21:31;;;;;;;15.53;14.57;;;6.30;99.90;;;;;;4862157;29;20264;-48
2023/12/20 08:23:56;;;;;;;14.80;13.80;;;6.50;99.90;;;;;;4866534;29;20211;-45
2023/12/20 08:26:24;;;;;;;14.60;13.60;;;6.70;99.90;;;;;;4867221;29;20188;-51
2023/12/20 08:28:50;;;;;;;13.75;12.80;;;6.70;79.90;;;;;;4866912;29;20199;-45
2023/12/20 08:31:19;;;;;;;13.47;12.70;;;6.80;47.90;;;;;;4867104;29;21332;-45
2023/12/20 08:33:46;;;;;;;12.63;11.93;;;6.80;52.30;;;;;;4865886;29;20470;-45
2023/12/20 08:36:12;;;;;;;12.38;11.77;;;6.80;36.10;;;;;;4866647;29;20275;-48
2023/12/20 08:38:38;;;;;;;11.77;11.07;;;6.80;33.70;;;;;;4866765;29;20208;-47
2023/12/20 08:41:05;;;;;;;12.00;11.40;;;6.80;35.70;;;;;;4867299;29;20266;-46
2023/12/20 08:43:31;;;;;;;12.20;11.50;;;6.90;30.20;;;;;;4866994;29;20503;-44
2023/12/20 08:45:57;;;;;;;12.55;11.85;;;7.00;10.50;;;;;;4866508;29;20464;-46
2023/12/20 08:48:23;;;;;;;12.30;11.70;;;7.00;4.20;;;;;;4866558;29;20336;-46
2023/12/20 08:50:50;;;;;;;12.03;11.43;;;7.50;7.00;;;;;;4866341;29;20188;-46
2023/12/20 08:53:16;;;;;;;12.40;11.70;;;7.90;1.00;;;;;;4866178;29;20337;-46
2023/12/20 08:55:42;;;;;;;11.77;11.13;;;8.20;1.00;;;;;;4866917;29;20863;-45
2023/12/20 08:58:08;;;;;;;12.00;11.10;;;8.60;99.90;;;;;;4866500;29;20516;-47
2023/12/20 09:00:34;;;;;;;11.43;10.83;;;9.10;99.90;;;;;;4866433;29;20199;-45
2023/12/20 09:03:01;;;;;;;11.30;10.80;;;9.50;99.90;;;;;;4866459;29;20206;-45
2023/12/20 09:05:27;;;;;;;11.07;10.40;;;9.60;99.90;;;;;;4867089;29;20436;-46
2023/12/20 09:07:53;;;;;;;12.23;11.57;;;9.50;1.00;;;;;;4867512;29;20512;-51
2023/12/20 09:10:22;;;;;;;12.10;11.50;;;9.20;99.90;;;;;;4868071;29;21517;-53
2023/12/20 09:12:50;;;;;;;11.73;11.13;;;8.90;99.90;;;;;;4867575;29;20192;-52
2023/12/20 09:15:15;;;;;;;11.77;11.17;;;8.60;99.90;;;;;;4868114;29;20460;-50
2023/12/20 09:17:41;;;;;;;11.73;11.23;;;8.30;99.90;;;;;;4867646;29;20436;-48
2023/12/20 09:20:08;;;;;;;11.03;10.37;;;8.30;99.90;;;;;;4867509;29;20219;-49
2023/12/20 09:22:34;;;;;;;11.53;11.03;;;8.60;99.90;;;;;;4867627;29;21432;-48
2023/12/20 09:25:01;;;;;;;11.27;10.73;;;8.80;99.90;;;;;;4867828;29;20444;-51
2023/12/20 09:27:27;;;;;;;12.00;11.40;;;9.00;99.90;;;;;;4867081;29;20424;-49
2023/12/20 09:29:53;;;;;;;11.10;10.50;;;9.10;99.90;;;;;;4867798;29;21421;-53
2023/12/20 09:32:20;;;;;;;10.93;10.40;;;9.40;99.90;;;;;;4867827;29;20257;-50
2023/12/20 09:34:47;;;;;;;11.17;10.57;;;9.70;99.90;;;;;;4867023;29;20508;-50
2023/12/20 09:37:13;;;;;;;11.60;10.90;;;9.70;99.90;;;;;;4866409;29;21312;-50
2023/12/20 09:39:39;;;;;;;10.93;10.33;;;9.90;99.90;;;;;;4867031;29;20436;-50
2023/12/20 09:42:06;;;;;;;10.80;10.30;;;10.20;99.90;;;;;;4866866;29;20243;-51
2023/12/20 09:44:36;;;;;;;10.67;10.17;;;10.20;99.90;;;;;;4867131;29;20318;-51
2023/12/20 09:47:07;;;;;;;10.53;10.03;;;10.60;99.90;;;;;;4864932;29;20435;-50
2023/12/20 09:49:33;;;;;;;10.70;10.20;;;10.40;99.90;;;;;;4865407;29;20421;-48
2023/12/20 09:52:00;;;;;;;10.63;10.03;;;10.50;97.60;;;;;;4866623;29;20424;-51
2023/12/20 09:54:28;;;;;;;10.93;10.33;;;10.40;97.60;;;;;;4867183;29;20433;-53
2023/12/20 09:56:54;;;;;;;11.40;10.70;;;10.60;98.80;;;;;;4866997;29;20412;-54
2023/12/20 09:59:20;;;;;;;11.03;10.53;;;10.70;97.70;;;;;;4867160;29;20431;-50
2023/12/20 10:01:45;;;;;;;11.47;10.80;;;10.20;97.80;;;;;;4866426;29;20279;-50
2023/12/20 10:04:12;;;;;;;11.90;11.10;;;10.70;98.80;;;;;;4866383;29;20198;-50
2023/12/20 10:06:42;;;;;;;11.47;10.93;;;10.90;97.70;;;;;;4866034;29;20196;-50
2023/12/20 10:09:10;;;;;;;11.30;10.70;;;10.60;97.50;;;;;;4866098;29;20431;-50
2023/12/20 10:11:40;;;;;;;11.40;10.90;;;10.40;97.10;;;;;;4864669;29;20445;-50
2023/12/20 10:14:06;;;;;;;11.20;10.60;;;10.50;97.20;;;;;;4865028;29;20518;-54
2023/12/20 10:16:32;;;;;;;10.67;10.07;;;10.60;97.10;;;;;;4864575;29;20531;-49
2023/12/20 10:18:59;;;;;;;11.73;11.03;;;10.70;96.70;;;;;;4868584;29;20728;-50
2023/12/20 10:21:28;;;;;;;11.63;10.93;;;10.90;96.50;;;;;;4868705;29;20706;-53
2023/12/20 10:23:57;;;;;;;11.20;10.70;;;11.50;95.20;;;;;;4868687;29;20428;-53
2023/12/20 10:26:26;;;;;;;11.20;10.70;;;11.00;94.50;;;;;;4881446;29;20985;-49
2023/12/20 10:29:01;;;;;;;11.37;10.73;;;10.70;94.60;;;;;;4869959;29;20432;-51
2023/12/20 10:31:34;;;;;;;11.63;11.03;;;11.10;94.70;;;;;;4870244;29;20483;-53
2023/12/20 10:34:02;;;;;;;11.10;10.60;;;11.40;93.80;;;;;;4869573;29;21032;-53
2023/12/20 10:36:30;;;;;;;10.80;10.30;;;11.50;92.40;;;;;;4869597;29;20563;-52
2023/12/20 10:39:01;;;;;;;11.50;10.90;;;11.80;92.10;;;;;;4869645;29;20782;-52
2023/12/20 10:41:29;;;;;;;12.03;11.53;;;11.70;90.80;;;;;;4869616;29;20439;-51
2023/12/20 10:44:07;;;;;;;12.00;11.30;;;11.30;91.00;;;;;;4869132;29;20484;-50
2023/12/20 10:46:34;;;;;;;11.80;11.30;;;11.50;92.00;;;;;;4869500;29;20428;-49
2023/12/20 10:49:02;;;;;;;11.77;11.10;;;11.50;91.90;;;;;;4869624;29;20432;-53
2023/12/20 10:51:30;;;;;;;12.30;11.70;;;11.60;90.70;;;;;;4869675;29;20487;-46
2023/12/20 10:53:56;;;;;;;11.60;11.00;;;11.80;90.20;;;;;;4869315;29;20495;-47
2023/12/20 10:56:26;;;;;;;11.70;11.10;;;11.80;89.30;;;;;;4869526;29;20470;-46
2023/12/20 10:58:51;;;;;;;12.27;11.50;;;11.50;90.30;;;;;;4869164;29;20459;-49
2023/12/20 11:01:18;;;;;;;11.40;10.80;;;11.90;88.60;;;;;;4869475;29;20536;-46
2023/12/20 11:03:53;;;;;;;11.40;10.80;;;11.50;86.80;;;;;;4869023;29;20539;-47
2023/12/20 11:06:38;;;;;;;12.33;11.60;;;11.60;90.20;;;;;;4869202;29;20446;-46
2023/12/20 11:09:21;;;;;;;11.10;10.60;;;11.80;89.00;;;;;;4869388;29;20443;-44
2023/12/20 11:12:09;;;;;;;11.47;10.90;;;11.60;87.80;;;;;;4869082;29;20420;-45
2023/12/20 11:14:46;;;;;;;11.13;10.53;;;11.70;87.00;;;;;;4869108;29;20444;-47
2023/12/20 11:17:14;;;;;;;10.90;10.40;;;10.90;84.50;;;;;;4869040;29;20460;-47
2023/12/20 11:20:01;;;;;;;11.67;11.13;;;10.70;87.80;;;;;;4868820;29;20440;-44
2023/12/20 11:22:29;;;;;;;11.37;10.87;;;10.60;88.90;;;;;;4882603;29;20791;-47
2023/12/20 11:25:02;;;;;;;15.83;11.07;;;10.50;90.40;;;;;;4868863;29;20436;-46
2023/12/20 11:27:28;;;;;;;11.27;10.57;;;10.40;90.00;;;;;;4868723;29;21178;-44
2023/12/20 11:29:58;;;;;;;11.27;10.53;;;10.20;90.60;;;;;;4868842;29;20432;-43
2023/12/20 11:34:58;;;;;;;11.70;11.10;;;9.40;92.70;;;;;;4868638;29;20585;-45
2023/12/20 11:37:34;;;;;;;11.80;11.30;;;9.30;94.70;;;;;;4868258;29;20416;-43
2023/12/20 11:40:23;;;;;;;13.03;12.23;;;9.10;94.70;;;;;;4872779;29;20732;-44
2023/12/20 11:42:50;;;;;;;11.63;11.00;;;8.80;96.80;;;;;;4865802;29;20674;-45
2023/12/20 11:45:21;;;;;;;11.87;11.20;;;8.70;96.80;;;;;;4868488;29;20424;-46
2023/12/20 11:47:54;;;;;;;12.03;11.43;;;8.40;97.50;;;;;;4868473;29;20436;-47
2023/12/20 11:50:21;;;;;;;12.93;12.13;;;8.30;98.00;;;;;;4868249;29;20793;-45
2023/12/20 11:52:47;;;;;;;11.80;11.20;;;8.30;98.40;;;;;;4868395;29;20512;-44
2023/12/20 11:55:13;;;;;;;11.03;10.63;;;8.30;99.00;;;;;;4868376;29;20468;-45
2023/12/20 11:57:39;;;;;;;11.03;10.43;;;8.20;98.30;;;;;;4868222;29;20824;-45
2023/12/20 12:00:06;;;;;;;12.10;11.50;;;8.20;99.10;;;;;;4868052;29;20506;-53
2023/12/20 12:02:32;;;;;;;12.10;11.50;;;8.40;99.20;;;;;;4868806;29;20243;-50
2023/12/20 12:04:59;;;;;;;12.33;11.63;;;8.60;98.10;;;;;;4867593;29;20720;-52
2023/12/20 12:07:25;;;;;;;12.80;12.10;;;8.80;96.80;;;;;;4868068;29;20803;-50
2023/12/20 12:09:50;;;;;;;11.80;11.20;;;9.30;96.90;;;;;;4867927;29;20431;-50
2023/12/20 12:12:17;;;;;;;11.17;10.57;;;9.80;94.60;;;;;;4866908;29;20196;-50
2023/12/20 12:14:47;;;;;;;11.10;10.50;;;10.20;92.60;;;;;;4867851;29;20204;-48
2023/12/20 12:17:14;;;;;;;12.20;11.60;;;10.40;91.50;;;;;;4867659;29;20480;-43
2023/12/20 12:19:40;;;;;;;12.20;11.50;;;10.40;90.50;;;;;;4867545;29;20508;-44
2023/12/20 12:22:15;;;;;;;11.90;11.20;;;11.10;88.80;;;;;;4867923;29;20716;-43
2023/12/20 12:24:41;;;;;;;11.47;10.77;;;11.40;85.60;;;;;;4867765;29;20408;-43
2023/12/20 12:27:07;;;;;;;11.90;11.30;;;10.90;83.70;;;;;;4868747;29;20439;-47
2023/12/20 12:29:36;;;;;;;12.23;11.53;;;10.70;87.70;;;;;;4867622;29;20492;-47
2023/12/20 12:32:07;;;;;;;12.13;11.53;;;10.70;87.90;;;;;;4867596;29;21018;-45
2023/12/20 12:34:34;;;;;;;12.03;11.23;;;11.10;88.00;;;;;;4867362;29;20425;-45